This is the latest recevied weather packets stored in our database for station/object KV4OP. If no packets are shown the sender has not sent any weather packets the latest 10 day(s).
| Time | Temp. | Humidity | Pressure | Rain* | Wind** | Luminosity | Snow |
|---|---|---|---|---|---|---|---|
| 1778289632 | 27.78° C | 75% | 1014.1 hPa | 0 mm | - | - | - |
| 1778289332 | 27.78° C | 74% | 1014 hPa | 0 mm | - | - | - |
| 1778289031 | 27.78° C | 73% | 1013.4 hPa | 0 mm | - | - | - |
| 1778288134 | 27.78° C | 73% | 1012.9 hPa | 0 mm | - | - | - |
| 1778287832 | 28.33° C | 72% | 1012.7 hPa | 0 mm | - | - | - |
| 1778286631 | 28.89° C | 71% | 1012.7 hPa | 0 mm | - | - | - |
| 1778286330 | 28.89° C | 71% | 1012.8 hPa | 0 mm | - | - | - |
| 1778286031 | 28.89° C | 71% | 1012.8 hPa | 0 mm | - | - | - |
| 1778285429 | 28.89° C | 71% | 1012.7 hPa | 0 mm | - | - | - |
| 1778285129 | 29.44° C | 71% | 1012.7 hPa | 0 mm | - | - | - |
| 1778284229 | 29.44° C | 70% | 1012.4 hPa | 0 mm | - | - | - |
| 1778282728 | 30.56° C | 69% | 1011.9 hPa | 0 mm | - | - | - |
| 1778282427 | 30.56° C | 69% | 1011.8 hPa | 0 mm | - | - | - |
| 1778281889 | 30.56° C | 69% | 1011.8 hPa | 0 mm | - | - | - |
| 1778279124 | 32.22° C | 64% | 1011.2 hPa | 0 mm | - | - | - |
| 1778278824 | 32.78° C | 62% | 1011.2 hPa | 0 mm | - | - | - |
| 1778278223 | 32.78° C | 61% | 1011.2 hPa | 0 mm | - | - | - |
| 1778277925 | 33.33° C | 53% | 1011.3 hPa | 0 mm | - | - | - |
| 1778276722 | 33.33° C | 55% | 1011.2 hPa | 0 mm | - | - | - |
| 1778276121 | 33.33° C | 54% | 1011.3 hPa | 0 mm | - | - | - |
| 1778275521 | 33.89° C | 52% | 1011.2 hPa | 0 mm | - | - | - |
| 1778275220 | 33.89° C | 52% | 1011.2 hPa | 0 mm | - | - | - |
| 1778274920 | 33.33° C | 52% | 1011.3 hPa | 0 mm | - | - | - |
| 1778274620 | 33.33° C | 53% | 1011.2 hPa | 0 mm | - | - | - |
| 1778274321 | 33.33° C | 53% | 1011.3 hPa | 0 mm | - | - | - |
* Rain latest hour (hover to see other rain measurements)
** Current wind speed in m/s (hover to see current wind gust speed)